createdAt,value
2018-09-05T00:01:10.977Z,95572.56
2018-09-05T00:03:39.421Z,95567.48
2018-09-05T00:06:07.809Z,95572.86
2018-09-05T00:08:36.181Z,95568.56
2018-09-05T00:11:08.702Z,95563.97
2018-09-05T00:13:37.092Z,95565.45
2018-09-05T00:16:05.694Z,95564.68
2018-09-05T00:18:34.105Z,95574.36
2018-09-05T00:21:02.536Z,95571.08
2018-09-05T00:23:30.981Z,95575.82
2018-09-05T00:25:59.400Z,95572.67
2018-09-05T00:28:27.785Z,95577.08
2018-09-05T00:30:56.217Z,95574.83
2018-09-05T00:33:24.650Z,95569.46
2018-09-05T00:35:53.041Z,95572.03
2018-09-05T00:38:21.420Z,95577.91
2018-09-05T00:40:49.883Z,95571.64
2018-09-05T00:43:18.296Z,95571.30
2018-09-05T00:45:46.720Z,95565.02
2018-09-05T00:48:15.129Z,95564.08
2018-09-05T00:50:43.565Z,95564.44
2018-09-05T00:53:11.936Z,95567.11
2018-09-05T00:55:40.389Z,95573.31
2018-09-05T00:58:08.756Z,95564.92
2018-09-05T01:00:37.281Z,95570.58
2018-09-05T01:03:05.709Z,95567.63
2018-09-05T01:05:34.093Z,95565.94
2018-09-05T01:08:02.527Z,95564.92
2018-09-05T01:10:30.981Z,95560.52
2018-09-05T01:12:59.393Z,95561.36
2018-09-05T01:15:27.800Z,95565.20
2018-09-05T01:17:56.205Z,95562.63
2018-09-05T01:20:24.592Z,95562.45
2018-09-05T01:22:53.051Z,95564.01
2018-09-05T01:25:21.477Z,95558.70
2018-09-05T01:27:49.905Z,95556.16
2018-09-05T01:30:18.308Z,95549.59
2018-09-05T01:32:46.736Z,95543.49
2018-09-05T01:35:15.101Z,95545.61
2018-09-05T01:37:43.581Z,95547.21
2018-09-05T01:40:11.952Z,95552.21
2018-09-05T01:42:40.396Z,95555.92
2018-09-05T01:45:08.797Z,95556.79
2018-09-05T01:47:37.228Z,95557.87
2018-09-05T01:50:05.625Z,95557.72
2018-09-05T01:52:34.118Z,95550.85
2018-09-05T01:55:02.501Z,95550.44
2018-09-05T01:57:30.905Z,95546.45
2018-09-05T01:59:59.281Z,95547.50
2018-09-05T02:02:27.737Z,95546.84
2018-09-05T02:04:56.453Z,95542.85
2018-09-05T02:07:24.864Z,95543.41
2018-09-05T02:09:53.516Z,95543.80
2018-09-05T02:12:21.889Z,95543.09
2018-09-05T02:14:50.306Z,95537.63
2018-09-05T02:17:18.708Z,95541.84
2018-09-05T02:19:47.120Z,95538.72
2018-09-05T02:22:15.481Z,95535.43
2018-09-05T02:24:43.950Z,95536.39
2018-09-05T02:27:12.317Z,95539.74
2018-09-05T02:29:40.753Z,95536.48
2018-09-05T02:32:09.145Z,95538.97
2018-09-05T02:34:37.550Z,95538.24
2018-09-05T02:37:05.925Z,95537.98
2018-09-05T02:39:34.340Z,95533.26
2018-09-05T02:42:02.744Z,95528.50
2018-09-05T02:44:31.192Z,95524.80
2018-09-05T02:46:59.578Z,95531.31
2018-09-05T02:49:28.078Z,95531.59
2018-09-05T02:51:56.453Z,95524.52
2018-09-05T02:54:24.833Z,95529.84
2018-09-05T02:56:53.257Z,95531.02
2018-09-05T02:59:21.671Z,95532.39
2018-09-05T03:01:50.113Z,95529.13
2018-09-05T03:04:18.493Z,95526.48
2018-09-05T03:06:46.904Z,95527.00
2018-09-05T03:09:15.344Z,95525.59
2018-09-05T03:11:43.829Z,95526.81
2018-09-05T03:14:12.212Z,95528.02
2018-09-05T03:16:40.629Z,95526.63
2018-09-05T03:19:09.002Z,95526.72
2018-09-05T03:21:37.417Z,95534.25
2018-09-05T03:24:05.892Z,95539.84
2018-09-05T03:26:34.296Z,95540.16
2018-09-05T03:29:02.664Z,95536.39
2018-09-05T03:31:31.086Z,95537.15
2018-09-05T03:33:59.453Z,95538.66
2018-09-05T03:36:27.873Z,95542.73
2018-09-05T03:38:56.246Z,95536.27
2018-09-05T03:41:24.657Z,95541.30
2018-09-05T03:43:53.069Z,95540.70
2018-09-05T03:46:21.502Z,95540.53
2018-09-05T03:48:49.901Z,95536.52
2018-09-05T03:51:18.330Z,95538.45
2018-09-05T03:53:46.745Z,95534.66
2018-09-05T03:56:15.122Z,95533.23
2018-09-05T03:58:43.564Z,95530.92
2018-09-05T04:01:11.970Z,95533.67
2018-09-05T04:03:40.368Z,95533.61
2018-09-05T04:06:08.749Z,95534.05
2018-09-05T04:08:37.166Z,95533.23
2018-09-05T04:11:05.610Z,95529.30
2018-09-05T04:13:34.021Z,95532.05
2018-09-05T04:16:02.390Z,95528.72
2018-09-05T04:18:30.809Z,95536.05
2018-09-05T04:20:59.168Z,95527.95
2018-09-05T04:23:31.937Z,95532.78
2018-09-05T04:26:00.732Z,95533.20
2018-09-05T04:28:29.137Z,95526.08
2018-09-05T04:30:57.563Z,95528.85
2018-09-05T04:33:25.962Z,95529.72
2018-09-05T04:35:54.340Z,95527.89
2018-09-05T04:38:22.748Z,95523.49
2018-09-05T04:40:51.121Z,95530.39
2018-09-05T04:43:19.541Z,95527.77
2018-09-05T04:45:47.912Z,95534.63
2018-09-05T04:48:16.336Z,95530.07
2018-09-05T04:50:44.773Z,95527.64
2018-09-05T04:53:13.200Z,95526.97
2018-09-05T04:55:41.608Z,95528.98
2018-09-05T04:58:09.996Z,95531.70
2018-09-05T05:00:38.398Z,95533.23
2018-09-05T05:03:06.814Z,95541.59
2018-09-05T05:05:35.284Z,95537.48
2018-09-05T05:08:03.629Z,95535.72
2018-09-05T05:10:32.046Z,95541.20
2018-09-05T05:13:00.421Z,95541.59
2018-09-05T05:15:28.853Z,95540.54
2018-09-05T05:17:57.209Z,95548.39
2018-09-05T05:20:25.662Z,95541.63
2018-09-05T05:22:54.060Z,95544.18
2018-09-05T05:25:23.000Z,95544.63
2018-09-05T05:27:51.409Z,95547.41
2018-09-05T05:30:19.812Z,95542.20
2018-09-05T05:32:48.412Z,95546.19
2018-09-05T05:35:16.708Z,95549.89
2018-09-05T05:37:45.130Z,95552.26
2018-09-05T05:40:13.593Z,95552.00
2018-09-05T05:42:41.985Z,95554.84
2018-09-05T05:45:10.392Z,95556.14
2018-09-05T05:47:38.861Z,95559.08
2018-09-05T05:50:07.254Z,95551.97
2018-09-05T05:52:35.672Z,95550.72
2018-09-05T05:55:04.105Z,95542.92
2018-09-05T05:57:32.558Z,95557.20
2018-09-05T06:00:00.949Z,95545.73
2018-09-05T06:02:29.381Z,95550.97
2018-09-05T06:04:57.798Z,95555.63
2018-09-05T06:07:26.245Z,95554.31
2018-09-05T06:09:54.634Z,95552.05
2018-09-05T06:12:23.058Z,95556.33
2018-09-05T06:14:51.437Z,95553.06
2018-09-05T06:17:19.916Z,95552.98
2018-09-05T06:19:48.290Z,95556.39
2018-09-05T06:22:16.782Z,95562.38
2018-09-05T06:24:45.677Z,95566.83
2018-09-05T06:27:14.997Z,95561.14
2018-09-05T06:29:43.368Z,95561.50
2018-09-05T06:32:11.756Z,95565.34
2018-09-05T06:34:40.741Z,95564.73
2018-09-05T06:37:09.109Z,95556.95
2018-09-05T06:39:37.530Z,95552.88
2018-09-05T06:42:06.021Z,95558.64
2018-09-05T06:44:34.565Z,95554.44
2018-09-05T06:47:02.949Z,95561.02
2018-09-05T06:49:31.402Z,95564.36
2018-09-05T06:51:59.802Z,95564.41
2018-09-05T06:54:28.203Z,95552.89
2018-09-05T06:56:56.581Z,95569.06
2018-09-05T06:59:25.101Z,95572.34
2018-09-05T07:01:53.473Z,95571.70
2018-09-05T07:04:21.885Z,95574.83
2018-09-05T07:06:50.290Z,95567.25
2018-09-05T07:09:18.713Z,95576.91
2018-09-05T07:11:47.137Z,95574.45
2018-09-05T07:14:15.611Z,95573.97
2018-09-05T07:16:43.955Z,95572.61
2018-09-05T07:19:13.053Z,95571.42
2018-09-05T07:21:41.490Z,95578.83
2018-09-05T07:24:09.874Z,95578.45
2018-09-05T07:26:38.589Z,95570.70
2018-09-05T07:29:07.196Z,95568.55
2018-09-05T07:31:35.793Z,95574.94
2018-09-05T07:34:04.180Z,95573.44
2018-09-05T07:36:32.618Z,95578.48
2018-09-05T07:39:01.249Z,95583.89
2018-09-05T07:41:29.733Z,95590.64
2018-09-05T07:43:58.150Z,95588.56
2018-09-05T07:46:26.573Z,95588.53
2018-09-05T07:48:55.025Z,95582.73
2018-09-05T07:51:23.420Z,95588.25
2018-09-05T07:53:51.814Z,95594.66
2018-09-05T07:56:20.285Z,95592.85
2018-09-05T07:58:48.701Z,95595.05
2018-09-05T08:01:17.113Z,95595.99
2018-09-05T08:03:45.507Z,95599.94
2018-09-05T08:06:13.906Z,95594.94
2018-09-05T08:08:42.351Z,95599.00
2018-09-05T08:11:10.776Z,95599.03
2018-09-05T08:13:39.169Z,95598.80
2018-09-05T08:16:07.877Z,95604.04
2018-09-05T08:18:36.258Z,95595.51
2018-09-05T08:21:04.655Z,95609.53
2018-09-05T08:23:33.090Z,95605.33
2018-09-05T08:26:01.484Z,95609.34
2018-09-05T08:28:29.922Z,95611.98
2018-09-05T08:30:58.280Z,95612.48
2018-09-05T08:33:26.688Z,95606.66
2018-09-05T08:35:55.378Z,95614.00
2018-09-05T08:38:23.611Z,95609.55
2018-09-05T08:40:52.018Z,95609.09
2018-09-05T08:43:20.491Z,95602.19
2018-09-05T08:45:49.260Z,95599.08
2018-09-05T08:48:17.383Z,95596.76
2018-09-05T08:50:45.692Z,95598.43
2018-09-05T08:53:14.114Z,95602.55
2018-09-05T08:55:42.508Z,95594.12
2018-09-05T08:58:10.930Z,95598.75
2018-09-05T09:00:39.305Z,95598.42
2018-09-05T09:03:07.766Z,95592.73
2018-09-05T09:05:36.157Z,95595.67
2018-09-05T09:08:04.615Z,95590.03
2018-09-05T09:10:33.001Z,95592.48
2018-09-05T09:13:01.352Z,95590.61
2018-09-05T09:15:29.777Z,95591.24
2018-09-05T09:17:58.166Z,95586.66
2018-09-05T09:20:26.593Z,95581.16
2018-09-05T09:22:54.989Z,95583.55
2018-09-05T09:25:23.392Z,95579.78
2018-09-05T09:27:51.809Z,95587.30
2018-09-05T09:30:20.221Z,95578.47
2018-09-05T09:32:48.597Z,95581.05
2018-09-05T09:35:17.049Z,95579.92
2018-09-05T09:37:45.401Z,95580.92
2018-09-05T09:40:14.688Z,95584.12
2018-09-05T09:42:43.093Z,95583.43
2018-09-05T09:45:11.509Z,95575.45
2018-09-05T09:47:39.885Z,95576.09
2018-09-05T09:50:08.925Z,95567.63
2018-09-05T09:52:38.674Z,95566.43
2018-09-05T09:55:13.566Z,95564.11
2018-09-05T09:57:41.960Z,95564.41
2018-09-05T10:00:12.092Z,95565.73
2018-09-05T10:03:47.601Z,95555.98
2018-09-05T10:06:25.966Z,95558.19
2018-09-05T10:08:59.837Z,95558.24
2018-09-05T10:11:33.461Z,95546.89
2018-09-05T10:14:07.240Z,95545.55
2018-09-05T10:16:44.712Z,95547.14
2018-09-05T10:19:13.521Z,95544.22
2018-09-05T10:21:41.949Z,95539.80
2018-09-05T10:24:10.321Z,95537.16
2018-09-05T10:26:38.738Z,95542.28
2018-09-05T10:29:07.108Z,95544.59
2018-09-05T10:31:35.570Z,95532.80
2018-09-05T10:34:03.990Z,95532.23
2018-09-05T10:36:32.460Z,95534.59
2018-09-05T10:39:00.870Z,95521.64
2018-09-05T10:41:29.236Z,95527.97
2018-09-05T10:43:57.671Z,95525.15
2018-09-05T10:46:26.057Z,95530.04
2018-09-05T10:48:54.503Z,95533.14
2018-09-05T10:51:28.930Z,95525.11
2018-09-05T10:53:57.330Z,95525.44
2018-09-05T10:56:25.697Z,95519.89
2018-09-05T10:58:54.120Z,95516.09
2018-09-05T11:01:22.549Z,95508.56
2018-09-05T11:03:50.977Z,95515.68
2018-09-05T11:06:19.369Z,95512.33
2018-09-05T11:08:47.815Z,95504.00
2018-09-05T11:11:16.212Z,95503.09
2018-09-05T11:13:44.644Z,95503.42
2018-09-05T11:16:13.057Z,95500.56
2018-09-05T11:18:41.426Z,95501.98
2018-09-05T11:21:09.876Z,95502.67
2018-09-05T11:23:38.257Z,95503.59
2018-09-05T11:26:06.680Z,95506.56
2018-09-05T11:28:35.109Z,95502.09
2018-09-05T11:31:03.513Z,95500.48
2018-09-05T11:33:31.908Z,95500.92
2018-09-05T11:36:00.324Z,95501.12
2018-09-05T11:38:28.710Z,95499.69
2018-09-05T11:40:57.165Z,95495.69
2018-09-05T11:43:25.624Z,95495.89
2018-09-05T11:45:54.029Z,95492.98
2018-09-05T11:48:22.428Z,95495.42
2018-09-05T11:50:50.964Z,95491.53
2018-09-05T11:53:19.352Z,95486.23
2018-09-05T11:55:47.728Z,95491.91
2018-09-05T11:58:16.136Z,95488.97
2018-09-05T12:00:44.510Z,95491.53
2018-09-05T12:03:12.921Z,95487.47
2018-09-05T12:05:41.293Z,95483.94
2018-09-05T12:08:09.721Z,95483.23
2018-09-05T12:10:38.116Z,95483.97
2018-09-05T12:13:06.553Z,95479.81
2018-09-05T12:15:34.940Z,95485.84
2018-09-05T12:18:03.344Z,95490.00
2018-09-05T12:20:31.755Z,95486.34
2018-09-05T12:23:00.179Z,95475.87
2018-09-05T12:25:28.598Z,95488.06
2018-09-05T12:27:57.007Z,95480.44
2018-09-05T12:30:31.677Z,95482.26
2018-09-05T12:33:00.133Z,95478.04
2018-09-05T12:35:28.505Z,95475.70
2018-09-05T12:37:57.241Z,95472.59
2018-09-05T12:40:53.805Z,95474.44
2018-09-05T12:43:22.666Z,95480.38
2018-09-05T12:45:51.048Z,95477.64
2018-09-05T12:48:19.489Z,95477.36
2018-09-05T12:50:47.880Z,95475.82
2018-09-05T12:53:16.296Z,95475.65
2018-09-05T12:55:44.699Z,95469.41
2018-09-05T12:58:13.221Z,95476.77
2018-09-05T13:00:41.685Z,95471.56
2018-09-05T13:03:10.073Z,95469.01
2018-09-05T13:05:38.527Z,95474.81
2018-09-05T13:08:06.874Z,95469.52
2018-09-05T13:10:35.293Z,95468.09
2018-09-05T13:13:03.686Z,95463.30
2018-09-05T13:15:32.137Z,95465.05
2018-09-05T13:18:00.509Z,95464.33
2018-09-05T13:20:28.933Z,95459.78
2018-09-05T13:22:57.317Z,95465.27
2018-09-05T13:25:25.759Z,95463.13
2018-09-05T13:27:54.122Z,95462.91
2018-09-05T13:30:22.532Z,95460.12
2018-09-05T13:32:50.925Z,95455.73
2018-09-05T13:35:19.401Z,95455.31
2018-09-05T13:37:47.765Z,95458.17
2018-09-05T13:40:16.173Z,95459.19
2018-09-05T13:42:44.549Z,95450.67
2018-09-05T13:45:13.232Z,95452.27
2018-09-05T13:47:41.630Z,95450.74
2018-09-05T13:50:10.043Z,95440.47
2018-09-05T13:52:38.445Z,95441.95
2018-09-05T13:55:06.889Z,95444.86
2018-09-05T13:57:35.317Z,95443.72
2018-09-05T14:00:03.761Z,95440.55
2018-09-05T14:02:32.156Z,95436.85
2018-09-05T14:05:00.541Z,95433.17
2018-09-05T14:07:28.962Z,95425.59
2018-09-05T14:09:57.353Z,95429.59
2018-09-05T14:12:25.761Z,95427.31
2018-09-05T14:14:54.154Z,95429.34
2018-09-05T14:17:22.566Z,95425.74
2018-09-05T14:19:50.952Z,95421.91
2018-09-05T14:22:19.362Z,95422.68
2018-09-05T14:24:54.041Z,95425.83
2018-09-05T14:27:22.490Z,95423.29
2018-09-05T14:29:50.876Z,95424.34
2018-09-05T14:32:19.260Z,95422.08
2018-09-05T14:34:47.675Z,95423.78
2018-09-05T14:37:16.060Z,95423.71
2018-09-05T14:42:18.197Z,95427.58
2018-09-05T14:44:46.605Z,95426.13
2018-09-05T14:47:14.985Z,95427.08
2018-09-05T14:49:43.426Z,95430.73
2018-09-05T14:52:11.813Z,95430.39
2018-09-05T14:54:40.241Z,95423.95
2018-09-05T14:57:08.657Z,95420.70
2018-09-05T14:59:37.098Z,95425.27
2018-09-05T15:02:05.493Z,95424.83
2018-09-05T15:04:33.916Z,95415.69
2018-09-05T15:07:02.311Z,95415.86
2018-09-05T15:09:30.741Z,95417.70
2018-09-05T15:11:59.222Z,95426.41
2018-09-05T15:14:27.585Z,95419.00
2018-09-05T15:16:56.009Z,95417.31
2018-09-05T15:19:24.389Z,95415.30
2018-09-05T15:21:52.796Z,95411.84
2018-09-05T15:24:21.173Z,95411.11
2018-09-05T15:26:49.588Z,95416.94
2018-09-05T15:29:17.969Z,95409.34
2018-09-05T15:31:46.397Z,95403.30
2018-09-05T15:34:14.785Z,95407.05
2018-09-05T15:36:43.220Z,95407.30
2018-09-05T15:39:12.047Z,95409.28
2018-09-05T15:41:40.788Z,95398.97
2018-09-05T15:44:09.555Z,95405.97
2018-09-05T15:46:37.975Z,95411.28
2018-09-05T15:49:07.601Z,95398.03
2018-09-05T15:51:36.016Z,95399.63
2018-09-05T15:54:04.556Z,95396.87
2018-09-05T15:56:33.164Z,95404.84
2018-09-05T15:59:01.532Z,95402.22
2018-09-05T16:01:29.949Z,95407.24
2018-09-05T16:03:58.493Z,95407.68
2018-09-05T16:06:26.925Z,95405.81
2018-09-05T16:08:55.313Z,95401.06
2018-09-05T16:11:23.747Z,95399.55
2018-09-05T16:13:52.384Z,95400.38
2018-09-05T16:16:20.867Z,95396.86
2018-09-05T16:18:49.922Z,95402.54
2018-09-05T16:21:18.289Z,95395.25
2018-09-05T16:23:46.697Z,95391.41
2018-09-05T16:26:15.129Z,95400.17
2018-09-05T16:28:43.543Z,95395.78
2018-09-05T16:31:11.926Z,95398.27
2018-09-05T16:33:40.346Z,95398.60
2018-09-05T16:36:08.784Z,95397.59
2018-09-05T16:38:37.206Z,95400.91
2018-09-05T16:41:05.621Z,95398.20
2018-09-05T16:43:34.061Z,95399.70
2018-09-05T16:46:02.517Z,95399.07
2018-09-05T16:48:30.997Z,95401.13
2018-09-05T16:50:59.377Z,95396.45
2018-09-05T16:53:27.885Z,95398.32
2018-09-05T16:55:56.291Z,95399.95
2018-09-05T16:58:24.712Z,95397.58
2018-09-05T17:00:53.193Z,95400.00
2018-09-05T17:03:21.597Z,95402.17
2018-09-05T17:05:49.973Z,95404.19
2018-09-05T17:08:18.697Z,95407.58
2018-09-05T17:10:47.126Z,95407.48
2018-09-05T17:13:15.525Z,95402.93
2018-09-05T17:15:43.969Z,95400.03
2018-09-05T17:18:12.369Z,95398.52
2018-09-05T17:20:40.832Z,95391.75
2018-09-05T17:23:09.277Z,95397.07
2018-09-05T17:25:37.689Z,95401.55
2018-09-05T17:28:06.096Z,95398.27
2018-09-05T17:30:34.525Z,95397.05
2018-09-05T17:33:02.888Z,95393.67
2018-09-05T17:35:31.365Z,95399.02
2018-09-05T17:37:59.710Z,95391.95
2018-09-05T17:40:28.125Z,95390.91
2018-09-05T17:42:56.572Z,95391.72
2018-09-05T17:45:24.982Z,95392.44
2018-09-05T17:47:53.365Z,95388.44
2018-09-05T17:50:21.838Z,95390.77
2018-09-05T17:52:50.228Z,95389.88
2018-09-05T17:55:18.690Z,95392.41
2018-09-05T17:57:47.085Z,95389.70
2018-09-05T18:00:15.578Z,95395.54
2018-09-05T18:02:43.957Z,95392.81
2018-09-05T18:05:12.361Z,95399.89
2018-09-05T18:07:40.760Z,95398.31
2018-09-05T18:10:09.333Z,95398.02
2018-09-05T18:12:37.745Z,95395.67
2018-09-05T18:15:06.249Z,95400.30
2018-09-05T18:17:34.671Z,95406.36
2018-09-05T18:20:03.134Z,95408.67
2018-09-05T18:22:31.675Z,95405.84
2018-09-05T18:25:00.053Z,95408.44
2018-09-05T18:27:28.515Z,95412.10
2018-09-05T18:29:56.961Z,95413.42
2018-09-05T18:32:25.739Z,95416.14
2018-09-05T18:34:54.360Z,95419.64
2018-09-05T18:37:23.458Z,95420.34
2018-09-05T18:39:51.861Z,95418.76
2018-09-05T18:42:20.631Z,95422.06
2018-09-05T18:44:49.074Z,95422.09
2018-09-05T18:47:17.895Z,95425.30
2018-09-05T18:49:46.397Z,95422.73
2018-09-05T18:52:14.893Z,95420.08
2018-09-05T18:54:43.314Z,95416.81
2018-09-05T18:57:11.772Z,95417.88
2018-09-05T18:59:40.494Z,95420.28
2018-09-05T19:02:08.937Z,95418.40
2018-09-05T19:04:37.564Z,95415.69
2018-09-05T19:07:06.402Z,95411.20
2018-09-05T19:09:35.561Z,95410.64
2018-09-05T19:12:03.983Z,95401.66
2018-09-05T19:14:32.409Z,95402.55
2018-09-05T19:17:00.827Z,95402.55
2018-09-05T19:19:29.391Z,95393.86
2018-09-05T19:21:57.786Z,95396.37
2018-09-05T19:24:26.458Z,95396.23
2018-09-05T19:26:54.872Z,95394.61
2018-09-05T19:29:23.277Z,95399.33
2018-09-05T19:31:51.660Z,95400.94
2018-09-05T19:34:20.113Z,95397.31
2018-09-05T19:36:48.510Z,95398.69
2018-09-05T19:41:50.933Z,95393.20
2018-09-05T19:44:19.409Z,95392.80
2018-09-05T19:46:47.819Z,95389.86
2018-09-05T19:49:16.331Z,95390.77
2018-09-05T19:51:44.678Z,95391.53
2018-09-05T19:54:13.073Z,95389.94
2018-09-05T19:56:41.481Z,95397.85
2018-09-05T19:59:09.942Z,95394.39
2018-09-05T20:01:38.364Z,95390.24
2018-09-05T20:04:06.813Z,95387.52
2018-09-05T20:06:35.224Z,95387.13
2018-09-05T20:09:04.593Z,95390.73
2018-09-05T20:11:33.013Z,95391.91
2018-09-05T20:14:01.386Z,95392.22
2018-09-05T20:16:29.853Z,95393.29
2018-09-05T20:18:58.288Z,95389.55
2018-09-05T20:21:26.712Z,95394.70
2018-09-05T20:23:55.110Z,95405.80
2018-09-05T20:26:23.526Z,95409.12
2018-09-05T20:28:51.989Z,95404.34
2018-09-05T20:31:20.394Z,95408.48
2018-09-05T20:33:48.813Z,95402.48
2018-09-05T20:36:17.217Z,95407.56
2018-09-05T20:38:45.608Z,95405.85
2018-09-05T20:41:14.088Z,95410.49
2018-09-05T20:43:42.551Z,95405.37
2018-09-05T20:48:44.788Z,95408.25
2018-09-05T20:51:13.172Z,95403.42
2018-09-05T20:53:41.808Z,95399.27
2018-09-05T20:56:10.236Z,95405.80
2018-09-05T20:58:38.759Z,95406.34
2018-09-05T21:01:07.145Z,95403.41
2018-09-05T21:03:35.589Z,95398.00
2018-09-05T21:06:04.098Z,95402.63
2018-09-05T21:08:32.547Z,95404.16
2018-09-05T21:11:00.905Z,95403.20
2018-09-05T21:13:29.385Z,95396.09
2018-09-05T21:16:04.560Z,95396.58
2018-09-05T21:18:33.439Z,95395.90
2018-09-05T21:21:01.800Z,95396.39
2018-09-05T21:23:31.575Z,95392.23
2018-09-05T21:26:00.201Z,95394.58
2018-09-05T21:28:28.597Z,95392.63
2018-09-05T21:30:57.037Z,95394.92
2018-09-05T21:33:25.956Z,95389.02
2018-09-05T21:35:54.500Z,95391.84
2018-09-05T21:38:22.915Z,95392.52
2018-09-05T21:40:51.338Z,95400.28
2018-09-05T21:43:19.713Z,95394.04
2018-09-05T21:45:48.161Z,95389.06
2018-09-05T21:48:16.573Z,95384.02
2018-09-05T21:50:46.813Z,95389.64
2018-09-05T21:53:15.177Z,95386.56
2018-09-05T21:55:43.632Z,95377.18
2018-09-05T21:58:12.048Z,95375.48
2018-09-05T22:00:40.501Z,95376.01
2018-09-05T22:03:09.018Z,95373.08
2018-09-05T22:05:37.402Z,95374.25
2018-09-05T22:08:06.064Z,95366.55
2018-09-05T22:10:34.445Z,95373.25
2018-09-05T22:13:02.904Z,95366.89
2018-09-05T22:15:41.221Z,95365.13
2018-09-05T22:18:09.622Z,95361.86
2018-09-05T22:20:38.365Z,95365.16
2018-09-05T22:23:06.840Z,95367.16
2018-09-05T22:25:35.276Z,95361.89
2018-09-05T22:28:03.737Z,95364.71
2018-09-05T22:30:33.305Z,95362.38
2018-09-05T22:33:02.436Z,95359.07
2018-09-05T22:35:30.808Z,95365.02
2018-09-05T22:37:59.499Z,95361.17
2018-09-05T22:40:30.437Z,95360.73
2018-09-05T22:43:10.736Z,95358.69
2018-09-05T22:45:50.360Z,95359.45
2018-09-05T22:48:35.368Z,95354.33
2018-09-05T22:51:22.408Z,95359.06
2018-09-05T22:54:11.522Z,95355.34
2018-09-05T22:57:02.355Z,95354.89
2018-09-05T23:00:20.122Z,95358.88
2018-09-05T23:04:01.550Z,95358.05
2018-09-05T23:08:45.466Z,95351.17
2018-09-05T23:11:54.394Z,95345.72
2018-09-05T23:14:38.838Z,95340.60
2018-09-05T23:17:19.036Z,95337.22
2018-09-05T23:19:58.358Z,95337.74
2018-09-05T23:22:36.854Z,95341.23
2018-09-05T23:25:05.265Z,95340.41
2018-09-05T23:27:33.706Z,95347.81
2018-09-05T23:30:02.116Z,95344.78
2018-09-05T23:32:30.546Z,95337.10
2018-09-05T23:34:58.929Z,95333.08
2018-09-05T23:37:27.359Z,95336.09
2018-09-05T23:39:55.782Z,95338.50
2018-09-05T23:42:24.198Z,95336.42
2018-09-05T23:44:52.614Z,95327.80
2018-09-05T23:47:21.066Z,95326.16
2018-09-05T23:49:49.510Z,95326.64
2018-09-05T23:52:17.926Z,95321.87
2018-09-05T23:54:46.365Z,95322.84
2018-09-05T23:57:14.770Z,95322.02
2018-09-05T23:59:43.215Z,95326.22
